createdAt,value
2023-03-29T00:00:08.248Z,101380.72
2023-03-29T00:02:38.296Z,101394.47
2023-03-29T00:05:08.465Z,101395.16
2023-03-29T00:07:36.007Z,101390.59
2023-03-29T00:10:04.716Z,101399.00
2023-03-29T00:12:31.705Z,101393.75
2023-03-29T00:14:58.374Z,101382.91
2023-03-29T00:17:25.125Z,101382.72
2023-03-29T00:19:53.086Z,101379.03
2023-03-29T00:22:19.723Z,101372.81
2023-03-29T00:24:51.049Z,101370.47
2023-03-29T00:27:17.753Z,101364.66
2023-03-29T00:29:44.377Z,101365.31
2023-03-29T00:32:11.726Z,101360.88
2023-03-29T00:34:38.386Z,101367.66
2023-03-29T00:37:09.530Z,101365.31
2023-03-29T00:39:36.382Z,101358.88
2023-03-29T00:42:03.202Z,101349.56
2023-03-29T00:44:54.715Z,101354.53
2023-03-29T00:47:26.596Z,101348.72
2023-03-29T00:49:53.933Z,101338.53
2023-03-29T00:52:24.178Z,101330.78
2023-03-29T00:54:54.049Z,101340.16
2023-03-29T00:57:22.316Z,101328.25
2023-03-29T00:59:50.537Z,101326.28
2023-03-29T01:02:22.074Z,101326.81
2023-03-29T01:04:57.980Z,101319.00
2023-03-29T01:07:30.781Z,101315.94
2023-03-29T01:10:19.591Z,101307.38
2023-03-29T01:12:50.158Z,101303.44
2023-03-29T01:15:20.289Z,101310.78
2023-03-29T01:17:50.941Z,101306.41
2023-03-29T01:20:43.356Z,101303.47
2023-03-29T01:23:16.303Z,101303.41
2023-03-29T01:26:10.463Z,101299.06
2023-03-29T01:28:51.069Z,101291.44
2023-03-29T01:31:21.964Z,101289.69
2023-03-29T01:33:52.586Z,101288.19
2023-03-29T01:36:35.038Z,101284.81
2023-03-29T01:39:05.160Z,101279.69
2023-03-29T01:41:43.793Z,101274.50
2023-03-29T01:44:18.200Z,101260.56
2023-03-29T01:46:53.125Z,101269.28
2023-03-29T01:49:26.285Z,101260.16
2023-03-29T01:52:05.446Z,101261.34
2023-03-29T01:54:35.732Z,101254.41
2023-03-29T01:57:04.945Z,101250.63
2023-03-29T01:59:34.374Z,101244.47
2023-03-29T02:02:03.260Z,101241.88
2023-03-29T02:04:36.474Z,101231.91
2023-03-29T02:07:04.743Z,101227.50
2023-03-29T02:09:32.142Z,101228.38
2023-03-29T02:12:00.566Z,101230.84
2023-03-29T02:14:27.759Z,101230.19
2023-03-29T02:16:54.499Z,101225.03
2023-03-29T02:19:23.001Z,101226.69
2023-03-29T02:22:08.340Z,101219.91
2023-03-29T02:24:36.551Z,101215.53
2023-03-29T02:27:03.674Z,101215.53
2023-03-29T02:29:30.406Z,101218.97
2023-03-29T02:32:06.925Z,101212.91
2023-03-29T02:34:39.067Z,101212.13
2023-03-29T02:37:12.433Z,101211.28
2023-03-29T02:39:40.086Z,101213.81
2023-03-29T02:42:07.533Z,101209.81
2023-03-29T02:44:37.183Z,101203.72
2023-03-29T02:47:08.139Z,101191.88
2023-03-29T02:49:34.924Z,101187.13
2023-03-29T02:52:07.386Z,101186.09
2023-03-29T02:54:34.644Z,101186.28
2023-03-29T02:57:06.306Z,101183.56
2023-03-29T02:59:33.584Z,101176.72
2023-03-29T03:02:00.871Z,101177.03
2023-03-29T03:04:28.195Z,101170.75
2023-03-29T03:06:54.838Z,101165.56
2023-03-29T03:09:21.438Z,101161.34
2023-03-29T03:11:48.032Z,101162.28
2023-03-29T03:14:14.840Z,101149.97
2023-03-29T03:16:41.494Z,101156.31
2023-03-29T03:19:08.162Z,101151.03
2023-03-29T03:21:37.687Z,101158.94
2023-03-29T03:24:05.556Z,101154.50
2023-03-29T03:26:32.629Z,101140.97
2023-03-29T03:28:59.361Z,101145.16
2023-03-29T03:31:26.046Z,101137.13
2023-03-29T03:33:53.525Z,101133.03
2023-03-29T03:36:25.984Z,101129.59
2023-03-29T03:38:53.224Z,101129.41
2023-03-29T03:41:19.990Z,101134.47
2023-03-29T03:43:48.971Z,101129.28
2023-03-29T03:46:17.113Z,101127.56
2023-03-29T03:48:44.616Z,101126.81
2023-03-29T03:51:11.562Z,101131.00
2023-03-29T03:53:38.261Z,101121.69
2023-03-29T03:56:09.008Z,101124.31
2023-03-29T03:58:36.806Z,101119.88
2023-03-29T04:01:04.439Z,101119.09
2023-03-29T04:03:31.771Z,101115.75
2023-03-29T04:06:02.487Z,101119.13
2023-03-29T04:08:29.170Z,101114.22
2023-03-29T04:10:57.547Z,101116.91
2023-03-29T04:13:24.709Z,101119.00
2023-03-29T04:15:54.342Z,101114.81
2023-03-29T04:18:21.420Z,101110.34
2023-03-29T04:20:48.944Z,101113.72
2023-03-29T04:23:16.139Z,101118.84
2023-03-29T04:25:45.769Z,101112.72
2023-03-29T04:28:12.919Z,101107.59
2023-03-29T04:30:40.064Z,101112.81
2023-03-29T04:33:06.788Z,101103.38
2023-03-29T04:35:33.675Z,101098.38
2023-03-29T04:38:00.408Z,101096.13
2023-03-29T04:40:27.353Z,101097.78
2023-03-29T04:42:54.445Z,101100.34
2023-03-29T04:45:21.327Z,101093.75
2023-03-29T04:47:48.204Z,101094.72
2023-03-29T04:50:15.719Z,101105.81
2023-03-29T04:52:42.388Z,101090.72
2023-03-29T04:55:09.380Z,101092.31
2023-03-29T04:57:36.034Z,101091.34
2023-03-29T05:00:08.349Z,101087.34
2023-03-29T05:02:34.997Z,101089.16
2023-03-29T05:05:01.654Z,101087.88
2023-03-29T05:07:28.271Z,101078.50
2023-03-29T05:09:54.950Z,101070.09
2023-03-29T05:12:21.562Z,101076.91
2023-03-29T05:14:48.158Z,101082.16
2023-03-29T05:17:14.845Z,101081.31
2023-03-29T05:19:41.530Z,101078.16
2023-03-29T05:22:08.968Z,101073.19
2023-03-29T05:24:36.133Z,101071.03
2023-03-29T05:27:02.733Z,101072.94
2023-03-29T05:29:29.528Z,101069.72
2023-03-29T05:31:56.286Z,101058.72
2023-03-29T05:34:23.021Z,101063.91
2023-03-29T05:36:49.620Z,101060.50
2023-03-29T05:39:16.285Z,101061.81
2023-03-29T05:41:43.008Z,101058.50
2023-03-29T05:44:09.672Z,101061.25
2023-03-29T05:46:36.270Z,101052.00
2023-03-29T05:49:03.264Z,101042.59
2023-03-29T05:51:29.842Z,101046.34
2023-03-29T05:53:56.633Z,101042.25
2023-03-29T05:56:23.254Z,101047.59
2023-03-29T05:58:51.372Z,101041.63
2023-03-29T06:01:19.100Z,101051.25
2023-03-29T06:03:49.220Z,101045.25
2023-03-29T06:06:16.667Z,101044.59
2023-03-29T06:08:44.121Z,101044.78
2023-03-29T06:11:13.323Z,101044.16
2023-03-29T06:13:42.182Z,101044.50
2023-03-29T06:16:10.730Z,101047.19
2023-03-29T06:18:40.226Z,101050.84
2023-03-29T06:21:09.409Z,101050.34
2023-03-29T06:23:36.924Z,101040.91
2023-03-29T06:26:04.131Z,101044.63
2023-03-29T06:28:30.717Z,101042.88
2023-03-29T06:31:02.957Z,101046.47
2023-03-29T06:33:32.322Z,101037.31
2023-03-29T06:35:59.043Z,101046.38
2023-03-29T06:38:28.977Z,101046.22
2023-03-29T06:41:06.097Z,101045.44
2023-03-29T06:43:33.485Z,101046.56
2023-03-29T06:46:00.735Z,101042.38
2023-03-29T06:48:27.494Z,101031.97
2023-03-29T06:50:54.610Z,101037.41
2023-03-29T06:53:22.047Z,101022.81
2023-03-29T06:55:51.833Z,101024.75
2023-03-29T06:58:18.628Z,101024.97
2023-03-29T07:00:45.905Z,101026.75
2023-03-29T07:03:19.935Z,101022.59
2023-03-29T07:05:47.462Z,101015.75
2023-03-29T07:08:16.282Z,101020.22
2023-03-29T07:10:47.429Z,101013.41
2023-03-29T07:13:14.282Z,101019.75
2023-03-29T07:15:41.713Z,101016.38
2023-03-29T07:18:09.370Z,101026.09
2023-03-29T07:20:38.463Z,101018.38
2023-03-29T07:23:06.385Z,101014.19
2023-03-29T07:25:33.997Z,101008.22
2023-03-29T07:28:00.676Z,101010.84
2023-03-29T07:30:31.689Z,101014.41
2023-03-29T07:32:59.376Z,101009.38
2023-03-29T07:35:27.122Z,101006.84
2023-03-29T07:37:55.688Z,101006.09
2023-03-29T07:40:26.231Z,101006.13
2023-03-29T07:42:55.271Z,101006.16
2023-03-29T07:45:26.656Z,100998.34
2023-03-29T07:47:57.594Z,101003.72
2023-03-29T07:50:24.894Z,101000.25
2023-03-29T07:52:51.493Z,100988.03
2023-03-29T07:55:18.137Z,100990.81
2023-03-29T07:57:44.839Z,100990.00
2023-03-29T08:00:16.518Z,100993.59
2023-03-29T08:02:44.729Z,100988.50
2023-03-29T08:05:12.936Z,100991.22
2023-03-29T08:07:41.364Z,100992.16
2023-03-29T08:10:13.979Z,100989.56
2023-03-29T08:12:41.123Z,100995.72
2023-03-29T08:15:08.682Z,100998.41
2023-03-29T08:17:36.256Z,100999.28
2023-03-29T08:20:04.138Z,100995.84
2023-03-29T08:22:32.152Z,100988.03
2023-03-29T08:24:58.815Z,100985.47
2023-03-29T08:27:25.907Z,100993.41
2023-03-29T08:29:52.640Z,100983.00
2023-03-29T08:32:19.283Z,100987.38
2023-03-29T08:34:46.932Z,100988.34
2023-03-29T08:37:15.178Z,100991.06
2023-03-29T08:39:42.072Z,100977.06
2023-03-29T08:42:17.696Z,100975.31
2023-03-29T08:44:56.557Z,100983.22
2023-03-29T08:47:59.965Z,100971.81
2023-03-29T08:50:33.912Z,100968.31
2023-03-29T08:53:06.840Z,100977.03
2023-03-29T08:55:37.734Z,100971.72
2023-03-29T08:58:07.587Z,100969.09
2023-03-29T09:00:44.380Z,100967.31
2023-03-29T09:03:25.344Z,100961.13
2023-03-29T09:06:03.476Z,100946.97
2023-03-29T09:08:30.516Z,100948.66
2023-03-29T09:11:24.901Z,100952.91
2023-03-29T09:14:17.451Z,100958.13
2023-03-29T09:17:02.859Z,100950.84
2023-03-29T09:19:54.776Z,100935.00
2023-03-29T09:22:45.022Z,100933.06
2023-03-29T09:25:44.046Z,100931.97
2023-03-29T09:28:27.558Z,100930.25
2023-03-29T09:31:07.880Z,100933.72
2023-03-29T09:33:44.720Z,100928.41
2023-03-29T09:36:17.604Z,100923.94
2023-03-29T09:38:47.155Z,100917.00
2023-03-29T09:41:21.662Z,100928.13
2023-03-29T09:43:49.734Z,100914.78
2023-03-29T09:46:23.633Z,100914.66
2023-03-29T09:48:50.765Z,100907.63
2023-03-29T09:51:22.714Z,100904.00
2023-03-29T09:53:49.563Z,100908.53
2023-03-29T09:56:16.912Z,100897.88
2023-03-29T09:58:43.969Z,100894.19
2023-03-29T10:01:14.509Z,100895.97
2023-03-29T10:03:42.388Z,100885.50
2023-03-29T10:06:11.167Z,100889.22
2023-03-29T10:08:44.102Z,100895.44
2023-03-29T10:11:20.538Z,100883.81
2023-03-29T10:13:49.209Z,100890.63
2023-03-29T10:16:30.348Z,100877.78
2023-03-29T10:18:57.022Z,100882.63
2023-03-29T10:21:24.418Z,100867.03
2023-03-29T10:23:58.290Z,100859.81
2023-03-29T10:26:29.603Z,100867.31
2023-03-29T10:28:57.331Z,100859.84
2023-03-29T10:31:25.037Z,100861.88
2023-03-29T10:33:53.985Z,100855.94
2023-03-29T10:36:21.953Z,100847.44
2023-03-29T10:38:48.670Z,100852.09
2023-03-29T10:41:21.782Z,100850.06
2023-03-29T10:43:51.062Z,100844.56
2023-03-29T10:46:23.957Z,100845.34
2023-03-29T10:49:05.250Z,100840.75
2023-03-29T10:51:32.539Z,100838.97
2023-03-29T10:53:59.761Z,100839.75
2023-03-29T10:56:32.391Z,100837.31
2023-03-29T10:59:14.521Z,100833.09
2023-03-29T11:01:58.384Z,100839.28
2023-03-29T11:04:38.872Z,100833.09
2023-03-29T11:07:26.416Z,100825.22
2023-03-29T11:10:04.816Z,100821.22
2023-03-29T11:12:43.176Z,100828.06
2023-03-29T11:15:19.127Z,100821.81
2023-03-29T11:17:54.688Z,100827.31
2023-03-29T11:20:32.403Z,100831.53
2023-03-29T11:23:13.619Z,100823.75
2023-03-29T11:25:53.308Z,100835.47
2023-03-29T11:28:42.448Z,100833.34
2023-03-29T11:31:27.972Z,100832.69
2023-03-29T11:34:22.294Z,100825.25
2023-03-29T11:37:13.555Z,100811.88
2023-03-29T11:39:53.256Z,100799.50
2023-03-29T11:42:28.715Z,100803.91
2023-03-29T11:44:59.615Z,100801.94
2023-03-29T11:47:33.955Z,100798.56
2023-03-29T11:50:07.704Z,100789.91
2023-03-29T11:52:38.250Z,100794.41
2023-03-29T11:55:26.437Z,100793.22
2023-03-29T11:57:56.861Z,100790.38
2023-03-29T12:00:28.941Z,100791.06
2023-03-29T12:03:03.390Z,100798.88
2023-03-29T12:05:34.634Z,100788.47
2023-03-29T12:08:35.504Z,100791.25
2023-03-29T12:11:24.117Z,100790.25
2023-03-29T12:13:55.188Z,100791.19
2023-03-29T12:16:29.598Z,100784.22
2023-03-29T12:18:58.311Z,100785.06
2023-03-29T12:21:27.020Z,100777.88
2023-03-29T12:23:53.715Z,100787.66
2023-03-29T12:26:34.953Z,100782.47
2023-03-29T12:29:27.942Z,100778.13
2023-03-29T12:32:06.701Z,100783.50
2023-03-29T12:34:55.921Z,100778.38
2023-03-29T12:37:40.688Z,100773.09
2023-03-29T12:40:12.425Z,100770.63
2023-03-29T12:42:53.304Z,100768.13
2023-03-29T12:45:32.577Z,100770.69
2023-03-29T12:48:00.028Z,100763.63
2023-03-29T12:50:41.732Z,100760.22
2023-03-29T12:53:28.504Z,100775.97
2023-03-29T12:56:04.525Z,100776.75
2023-03-29T12:58:43.345Z,100766.16
2023-03-29T13:01:23.639Z,100765.47
2023-03-29T13:03:52.115Z,100762.03
2023-03-29T13:06:31.965Z,100754.16
2023-03-29T13:09:05.079Z,100746.19
2023-03-29T13:11:41.366Z,100742.75
2023-03-29T13:14:16.977Z,100749.75
2023-03-29T13:16:43.657Z,100733.13
2023-03-29T13:19:27.272Z,100738.34
2023-03-29T13:22:11.169Z,100739.16
2023-03-29T13:25:06.223Z,100740.03
2023-03-29T13:27:47.992Z,100738.19
2023-03-29T13:30:28.404Z,100743.47
2023-03-29T13:33:16.074Z,100735.66
2023-03-29T13:35:58.966Z,100739.94
2023-03-29T13:38:28.621Z,100738.13
2023-03-29T13:41:03.450Z,100728.63
2023-03-29T13:43:33.313Z,100723.25
2023-03-29T13:45:59.778Z,100727.50
2023-03-29T13:48:33.552Z,100719.25
2023-03-29T13:51:07.897Z,100718.31
2023-03-29T13:53:35.257Z,100713.69
2023-03-29T13:56:03.112Z,100709.28
2023-03-29T13:58:35.907Z,100720.88
2023-03-29T14:01:19.035Z,100717.56
2023-03-29T14:03:48.394Z,100719.38
2023-03-29T14:06:19.412Z,100729.25
2023-03-29T14:08:46.134Z,100731.13
2023-03-29T14:11:21.620Z,100733.84
2023-03-29T14:13:51.347Z,100725.13
2023-03-29T14:16:18.377Z,100723.56
2023-03-29T14:18:46.922Z,100727.13
2023-03-29T14:21:14.560Z,100733.34
2023-03-29T14:23:44.672Z,100735.13
2023-03-29T14:26:16.925Z,100744.72
2023-03-29T14:28:48.330Z,100732.47
2023-03-29T14:31:45.572Z,100727.28
2023-03-29T14:34:14.858Z,100732.66
2023-03-29T14:36:44.880Z,100736.06
2023-03-29T14:39:22.208Z,100722.84
2023-03-29T14:41:51.324Z,100729.00
2023-03-29T14:44:18.816Z,100723.78
2023-03-29T14:46:46.866Z,100715.06
2023-03-29T14:49:16.608Z,100716.91
2023-03-29T14:51:44.473Z,100706.41
2023-03-29T14:54:19.654Z,100709.84
2023-03-29T14:56:48.849Z,100709.75
2023-03-29T14:59:32.722Z,100705.50
2023-03-29T15:01:59.550Z,100714.22
2023-03-29T15:04:35.236Z,100707.88
2023-03-29T15:07:04.280Z,100701.84
2023-03-29T15:09:34.161Z,100698.16
2023-03-29T15:12:02.106Z,100696.44
2023-03-29T15:14:33.844Z,100694.66
2023-03-29T15:17:03.796Z,100700.97
2023-03-29T15:19:31.506Z,100701.88
2023-03-29T15:22:05.378Z,100702.78
2023-03-29T15:24:33.697Z,100695.22
2023-03-29T15:27:11.208Z,100686.38
2023-03-29T15:29:43.212Z,100688.94
2023-03-29T15:32:11.529Z,100690.13
2023-03-29T15:34:38.460Z,100694.50
2023-03-29T15:37:05.217Z,100684.72
2023-03-29T15:39:32.005Z,100682.25
2023-03-29T15:41:58.855Z,100672.50
2023-03-29T15:44:32.689Z,100674.34
2023-03-29T15:47:00.005Z,100671.78
2023-03-29T15:49:26.945Z,100666.34
2023-03-29T15:51:56.650Z,100660.28
2023-03-29T15:54:24.661Z,100659.63
2023-03-29T15:56:55.284Z,100656.97
2023-03-29T15:59:22.541Z,100657.84
2023-03-29T16:01:49.392Z,100663.34
2023-03-29T16:04:18.097Z,100654.47
2023-03-29T16:06:46.895Z,100651.84
2023-03-29T16:09:13.529Z,100656.16
2023-03-29T16:11:42.064Z,100655.50
2023-03-29T16:14:17.893Z,100652.00
2023-03-29T16:16:44.801Z,100651.09
2023-03-29T16:19:11.587Z,100653.03
2023-03-29T16:21:38.244Z,100648.69
2023-03-29T16:24:05.069Z,100646.09
2023-03-29T16:26:31.707Z,100649.63
2023-03-29T16:28:58.584Z,100647.06
2023-03-29T16:31:27.097Z,100652.47
2023-03-29T16:33:54.096Z,100655.16
2023-03-29T16:36:20.813Z,100657.84
2023-03-29T16:38:47.551Z,100653.28
2023-03-29T16:41:15.806Z,100661.03
2023-03-29T16:43:42.672Z,100661.31
2023-03-29T16:46:12.845Z,100657.09
2023-03-29T16:48:39.564Z,100653.47
2023-03-29T16:51:07.099Z,100651.81
2023-03-29T16:53:34.452Z,100649.28
2023-03-29T16:56:01.541Z,100643.16
2023-03-29T16:58:28.572Z,100639.72
2023-03-29T17:00:56.942Z,100635.41
2023-03-29T17:03:23.760Z,100642.47
2023-03-29T17:05:51.962Z,100642.53
2023-03-29T17:08:22.042Z,100644.25
2023-03-29T17:10:53.046Z,100637.31
2023-03-29T17:13:21.254Z,100640.81
2023-03-29T17:15:51.764Z,100642.59
2023-03-29T17:18:19.457Z,100636.56
2023-03-29T17:20:46.166Z,100642.75
2023-03-29T17:23:13.011Z,100637.53
2023-03-29T17:25:39.682Z,100634.94
2023-03-29T17:28:06.458Z,100637.53
2023-03-29T17:30:34.560Z,100643.75
2023-03-29T17:33:02.369Z,100645.53
2023-03-29T17:35:29.234Z,100642.00
2023-03-29T17:37:56.063Z,100643.88
2023-03-29T17:40:22.928Z,100638.69
2023-03-29T17:42:50.332Z,100638.72
2023-03-29T17:45:17.124Z,100634.34
2023-03-29T17:47:44.246Z,100627.41
2023-03-29T17:50:12.699Z,100638.91
2023-03-29T17:52:39.725Z,100634.56
2023-03-29T17:55:13.300Z,100634.59
2023-03-29T17:57:43.772Z,100637.25
2023-03-29T18:00:13.390Z,100636.44
2023-03-29T18:02:40.825Z,100634.75
2023-03-29T18:05:09.380Z,100632.13
2023-03-29T18:07:36.777Z,100624.28
2023-03-29T18:10:03.980Z,100634.84
2023-03-29T18:12:30.703Z,100632.25
2023-03-29T18:14:57.307Z,100626.13
2023-03-29T18:17:25.356Z,100627.00
2023-03-29T18:19:52.095Z,100632.28
2023-03-29T18:22:19.757Z,100628.84
2023-03-29T18:24:46.645Z,100618.34
2023-03-29T18:27:14.559Z,100619.28
2023-03-29T18:29:41.441Z,100622.81
2023-03-29T18:32:08.165Z,100621.91
2023-03-29T18:34:34.863Z,100633.34
2023-03-29T18:37:01.531Z,100624.56
2023-03-29T18:39:28.383Z,100630.75
2023-03-29T18:41:55.014Z,100635.13
2023-03-29T18:44:22.916Z,100632.50
2023-03-29T18:46:49.607Z,100629.00
2023-03-29T18:49:16.483Z,100627.28
2023-03-29T18:51:44.087Z,100627.25
2023-03-29T18:54:10.899Z,100622.91
2023-03-29T18:56:37.650Z,100641.31
2023-03-29T18:59:06.284Z,100642.16
2023-03-29T19:01:33.636Z,100640.44
2023-03-29T19:04:00.682Z,100638.69
2023-03-29T19:06:27.809Z,100637.81
2023-03-29T19:08:55.474Z,100633.44
2023-03-29T19:11:25.556Z,100639.56
2023-03-29T19:13:55.601Z,100637.81
2023-03-29T19:16:22.486Z,100636.06
2023-03-29T19:18:49.323Z,100643.09
2023-03-29T19:21:15.930Z,100641.31
2023-03-29T19:23:42.719Z,100636.97
2023-03-29T19:26:10.732Z,100633.41
2023-03-29T19:28:37.394Z,100631.69
2023-03-29T19:31:04.444Z,100634.31
2023-03-29T19:33:31.271Z,100626.44
2023-03-29T19:35:57.855Z,100627.31
2023-03-29T19:38:24.707Z,100628.19
2023-03-29T19:40:52.357Z,100626.47
2023-03-29T19:43:20.641Z,100629.97
2023-03-29T19:45:48.963Z,100625.56
2023-03-29T19:48:22.386Z,100617.69
2023-03-29T19:50:51.456Z,100619.47
2023-03-29T19:53:18.248Z,100615.09
2023-03-29T19:55:45.377Z,100618.56
2023-03-29T19:58:12.720Z,100606.25
2023-03-29T20:00:39.623Z,100611.56
2023-03-29T20:03:09.959Z,100604.59
2023-03-29T20:05:38.468Z,100608.97
2023-03-29T20:08:05.802Z,100604.66
2023-03-29T20:10:33.015Z,100595.88
2023-03-29T20:12:59.868Z,100595.88
2023-03-29T20:15:26.812Z,100597.63
2023-03-29T20:17:57.036Z,100596.75
2023-03-29T20:20:25.405Z,100592.44
2023-03-29T20:23:04.636Z,100587.22
2023-03-29T20:25:33.063Z,100592.44
2023-03-29T20:27:59.692Z,100581.09
2023-03-29T20:30:26.415Z,100586.34
2023-03-29T20:32:53.213Z,100575.88
2023-03-29T20:35:20.005Z,100575.00
2023-03-29T20:37:46.573Z,100574.13
2023-03-29T20:40:15.572Z,100570.63
2023-03-29T20:42:42.236Z,100570.63
2023-03-29T20:45:18.730Z,100563.63
2023-03-29T20:47:50.589Z,100560.22
2023-03-29T20:50:19.656Z,100551.44
2023-03-29T20:52:46.476Z,100552.31
2023-03-29T20:55:13.289Z,100552.31
2023-03-29T20:57:42.157Z,100555.81
2023-03-29T21:00:12.657Z,100549.69
2023-03-29T21:02:39.618Z,100547.06
2023-03-29T21:05:08.566Z,100546.22
2023-03-29T21:07:35.297Z,100546.25
2023-03-29T21:10:02.831Z,100552.34
2023-03-29T21:12:29.827Z,100543.63
2023-03-29T21:14:56.602Z,100544.50
2023-03-29T21:17:23.416Z,100534.94
2023-03-29T21:19:50.189Z,100538.44
2023-03-29T21:22:17.590Z,100538.47
2023-03-29T21:24:44.224Z,100532.44
2023-03-29T21:27:11.036Z,100532.47
2023-03-29T21:29:37.762Z,100525.50
2023-03-29T21:32:04.729Z,100521.19
2023-03-29T21:34:31.398Z,100529.94
2023-03-29T21:36:58.038Z,100534.34
2023-03-29T21:39:28.208Z,100528.28
2023-03-29T21:41:55.006Z,100523.94
2023-03-29T21:44:21.678Z,100515.19
2023-03-29T21:46:48.293Z,100508.25
2023-03-29T21:49:15.083Z,100512.63
2023-03-29T21:51:41.834Z,100508.28
2023-03-29T21:54:09.768Z,100505.69
2023-03-29T21:56:36.353Z,100501.28
2023-03-29T21:59:03.487Z,100495.19
2023-03-29T22:01:30.380Z,100493.50
2023-03-29T22:03:57.073Z,100489.94
2023-03-29T22:06:23.778Z,100496.09
2023-03-29T22:08:53.159Z,100493.50
2023-03-29T22:11:20.220Z,100483.91
2023-03-29T22:13:47.047Z,100484.75
2023-03-29T22:16:16.512Z,100483.91
2023-03-29T22:18:43.729Z,100483.91
2023-03-29T22:21:13.793Z,100483.91
2023-03-29T22:23:50.490Z,100483.91
2023-03-29T22:26:18.735Z,100481.34
2023-03-29T22:28:46.078Z,100483.94
2023-03-29T22:31:20.642Z,100487.44
2023-03-29T22:33:47.791Z,100479.56
2023-03-29T22:36:25.693Z,100473.41
2023-03-29T22:38:52.993Z,100471.66
2023-03-29T22:41:23.554Z,100476.03
2023-03-29T22:43:55.341Z,100471.72
2023-03-29T22:46:22.942Z,100476.09
2023-03-29T22:48:49.854Z,100481.28
2023-03-29T22:51:16.816Z,100476.91
2023-03-29T22:53:49.753Z,100469.91
2023-03-29T22:56:16.877Z,100467.31
2023-03-29T22:58:43.727Z,100466.44
2023-03-29T23:01:11.346Z,100462.91
2023-03-29T23:03:38.090Z,100463.78
2023-03-29T23:06:05.393Z,100462.03
2023-03-29T23:08:32.784Z,100457.66
2023-03-29T23:11:00.649Z,100454.13
2023-03-29T23:13:29.117Z,100448.81
2023-03-29T23:15:59.036Z,100446.22
2023-03-29T23:18:27.774Z,100440.09
2023-03-29T23:20:56.856Z,100440.97
2023-03-29T23:23:27.380Z,100451.44
2023-03-29T23:25:55.577Z,100443.59
2023-03-29T23:28:24.935Z,100441.00
2023-03-29T23:31:03.524Z,100444.47
2023-03-29T23:33:35.966Z,100441.88
2023-03-29T23:36:04.200Z,100435.75
2023-03-29T23:38:34.803Z,100429.59
2023-03-29T23:41:03.733Z,100433.13
2023-03-29T23:43:33.049Z,100429.59
2023-03-29T23:46:05.684Z,100420.03
2023-03-29T23:48:32.734Z,100424.38
2023-03-29T23:50:59.689Z,100419.09
2023-03-29T23:53:29.001Z,100410.38
2023-03-29T23:56:01.337Z,100408.59
2023-03-29T23:58:28.867Z,100411.22
